sensor_id;sensor_type;location;lat;lon;timestamp;P1;durP1;ratioP1;P2;durP2;ratioP2
7179;SDS011;3631;42.152;24.756;2023-11-19T00:00:17;1.50;;;1.40;;
7179;SDS011;3631;42.152;24.756;2023-11-19T00:02:44;1.30;;;1.23;;
7179;SDS011;3631;42.152;24.756;2023-11-19T00:05:12;1.30;;;1.30;;
7179;SDS011;3631;42.152;24.756;2023-11-19T00:07:41;1.60;;;1.50;;
7179;SDS011;3631;42.152;24.756;2023-11-19T00:10:08;1.50;;;1.40;;
7179;SDS011;3631;42.152;24.756;2023-11-19T00:12:37;1.57;;;1.47;;
7179;SDS011;3631;42.152;24.756;2023-11-19T00:15:05;1.50;;;1.40;;
7179;SDS011;3631;42.152;24.756;2023-11-19T00:17:36;1.73;;;1.63;;
7179;SDS011;3631;42.152;24.756;2023-11-19T00:20:06;1.97;;;1.77;;
7179;SDS011;3631;42.152;24.756;2023-11-19T00:22:33;1.33;;;1.23;;
7179;SDS011;3631;42.152;24.756;2023-11-19T00:25:01;1.40;;;1.30;;
7179;SDS011;3631;42.152;24.756;2023-11-19T00:27:28;1.57;;;1.20;;
7179;SDS011;3631;42.152;24.756;2023-11-19T00:29:55;1.57;;;1.47;;
7179;SDS011;3631;42.152;24.756;2023-11-19T00:32:23;1.53;;;1.47;;
7179;SDS011;3631;42.152;24.756;2023-11-19T00:34:50;1.50;;;1.37;;
7179;SDS011;3631;42.152;24.756;2023-11-19T00:37:17;1.20;;;1.10;;
7179;SDS011;3631;42.152;24.756;2023-11-19T00:39:47;1.47;;;1.37;;
7179;SDS011;3631;42.152;24.756;2023-11-19T00:42:15;1.10;;;1.10;;
7179;SDS011;3631;42.152;24.756;2023-11-19T00:44:42;1.40;;;1.30;;
7179;SDS011;3631;42.152;24.756;2023-11-19T00:47:10;1.83;;;1.43;;
7179;SDS011;3631;42.152;24.756;2023-11-19T00:49:37;1.80;;;1.70;;
7179;SDS011;3631;42.152;24.756;2023-11-19T00:52:05;1.53;;;1.43;;
7179;SDS011;3631;42.152;24.756;2023-11-19T00:54:32;2.17;;;1.43;;
7179;SDS011;3631;42.152;24.756;2023-11-19T00:56:59;1.50;;;1.40;;
7179;SDS011;3631;42.152;24.756;2023-11-19T00:59:28;1.53;;;1.37;;
7179;SDS011;3631;42.152;24.756;2023-11-19T01:01:55;1.50;;;1.40;;
7179;SDS011;3631;42.152;24.756;2023-11-19T01:04:22;1.20;;;1.20;;
7179;SDS011;3631;42.152;24.756;2023-11-19T01:06:49;1.23;;;1.23;;
7179;SDS011;3631;42.152;24.756;2023-11-19T01:09:16;1.50;;;1.50;;
7179;SDS011;3631;42.152;24.756;2023-11-19T01:11:43;1.67;;;1.40;;
7179;SDS011;3631;42.152;24.756;2023-11-19T01:14:10;1.57;;;1.47;;
7179;SDS011;3631;42.152;24.756;2023-11-19T01:16:38;1.30;;;1.20;;
7179;SDS011;3631;42.152;24.756;2023-11-19T01:19:05;1.40;;;1.30;;
7179;SDS011;3631;42.152;24.756;2023-11-19T01:21:32;1.63;;;1.53;;
7179;SDS011;3631;42.152;24.756;2023-11-19T01:23:59;1.60;;;1.27;;
7179;SDS011;3631;42.152;24.756;2023-11-19T01:26:28;1.10;;;1.10;;
7179;SDS011;3631;42.152;24.756;2023-11-19T01:28:55;1.30;;;1.30;;
7179;SDS011;3631;42.152;24.756;2023-11-19T01:31:22;1.93;;;1.40;;
7179;SDS011;3631;42.152;24.756;2023-11-19T01:33:50;1.57;;;1.47;;
7179;SDS011;3631;42.152;24.756;2023-11-19T01:36:17;1.50;;;1.40;;
7179;SDS011;3631;42.152;24.756;2023-11-19T01:38:44;1.60;;;1.50;;
7179;SDS011;3631;42.152;24.756;2023-11-19T01:41:11;1.70;;;1.60;;
7179;SDS011;3631;42.152;24.756;2023-11-19T01:43:38;1.90;;;1.47;;
7179;SDS011;3631;42.152;24.756;2023-11-19T01:46:07;1.60;;;1.50;;
7179;SDS011;3631;42.152;24.756;2023-11-19T01:48:37;1.90;;;1.80;;
7179;SDS011;3631;42.152;24.756;2023-11-19T01:51:08;1.70;;;1.60;;
7179;SDS011;3631;42.152;24.756;2023-11-19T01:53:36;1.50;;;1.40;;
7179;SDS011;3631;42.152;24.756;2023-11-19T01:56:04;1.67;;;1.57;;
7179;SDS011;3631;42.152;24.756;2023-11-19T01:58:35;2.43;;;1.60;;
7179;SDS011;3631;42.152;24.756;2023-11-19T02:01:02;1.90;;;1.70;;
7179;SDS011;3631;42.152;24.756;2023-11-19T02:03:30;2.00;;;1.43;;
7179;SDS011;3631;42.152;24.756;2023-11-19T02:05:58;1.70;;;1.60;;
7179;SDS011;3631;42.152;24.756;2023-11-19T02:08:26;2.70;;;1.87;;
7179;SDS011;3631;42.152;24.756;2023-11-19T02:10:53;1.70;;;1.60;;
7179;SDS011;3631;42.152;24.756;2023-11-19T02:13:22;1.77;;;1.67;;
7179;SDS011;3631;42.152;24.756;2023-11-19T02:15:50;1.77;;;1.67;;
7179;SDS011;3631;42.152;24.756;2023-11-19T02:18:17;1.83;;;1.67;;
7179;SDS011;3631;42.152;24.756;2023-11-19T02:20:48;1.80;;;1.70;;
7179;SDS011;3631;42.152;24.756;2023-11-19T02:23:16;1.60;;;1.50;;
7179;SDS011;3631;42.152;24.756;2023-11-19T02:25:47;1.60;;;1.50;;
7179;SDS011;3631;42.152;24.756;2023-11-19T02:28:21;2.17;;;2.07;;
7179;SDS011;3631;42.152;24.756;2023-11-19T02:30:48;1.80;;;1.70;;
7179;SDS011;3631;42.152;24.756;2023-11-19T02:33:15;1.30;;;1.30;;
7179;SDS011;3631;42.152;24.756;2023-11-19T02:35:42;1.70;;;1.60;;
7179;SDS011;3631;42.152;24.756;2023-11-19T02:38:09;3.03;;;1.90;;
7179;SDS011;3631;42.152;24.756;2023-11-19T02:40:36;1.90;;;1.80;;
7179;SDS011;3631;42.152;24.756;2023-11-19T02:43:03;1.77;;;1.67;;
7179;SDS011;3631;42.152;24.756;2023-11-19T02:45:31;1.87;;;1.77;;
7179;SDS011;3631;42.152;24.756;2023-11-19T02:47:58;1.93;;;1.83;;
7179;SDS011;3631;42.152;24.756;2023-11-19T02:50:27;1.70;;;1.60;;
7179;SDS011;3631;42.152;24.756;2023-11-19T02:52:54;2.10;;;2.00;;
7179;SDS011;3631;42.152;24.756;2023-11-19T02:55:22;1.87;;;1.67;;
7179;SDS011;3631;42.152;24.756;2023-11-19T02:57:50;1.97;;;1.87;;
7179;SDS011;3631;42.152;24.756;2023-11-19T03:00:19;1.97;;;1.87;;
7179;SDS011;3631;42.152;24.756;2023-11-19T03:02:51;2.13;;;2.03;;
7179;SDS011;3631;42.152;24.756;2023-11-19T03:05:24;1.87;;;1.77;;
7179;SDS011;3631;42.152;24.756;2023-11-19T03:07:55;1.70;;;1.60;;
7179;SDS011;3631;42.152;24.756;2023-11-19T03:10:23;2.00;;;1.90;;
7179;SDS011;3631;42.152;24.756;2023-11-19T03:12:50;3.10;;;1.90;;
7179;SDS011;3631;42.152;24.756;2023-11-19T03:15:17;1.70;;;1.60;;
7179;SDS011;3631;42.152;24.756;2023-11-19T03:17:46;2.07;;;1.97;;
7179;SDS011;3631;42.152;24.756;2023-11-19T03:20:14;2.00;;;1.90;;
7179;SDS011;3631;42.152;24.756;2023-11-19T03:22:42;2.10;;;2.00;;
7179;SDS011;3631;42.152;24.756;2023-11-19T03:25:09;1.83;;;1.73;;
7179;SDS011;3631;42.152;24.756;2023-11-19T03:27:36;2.10;;;2.00;;
7179;SDS011;3631;42.152;24.756;2023-11-19T03:30:04;2.93;;;2.10;;
7179;SDS011;3631;42.152;24.756;2023-11-19T03:32:32;1.90;;;1.80;;
7179;SDS011;3631;42.152;24.756;2023-11-19T03:35:00;2.10;;;1.90;;
7179;SDS011;3631;42.152;24.756;2023-11-19T03:37:30;3.00;;;2.27;;
7179;SDS011;3631;42.152;24.756;2023-11-19T03:39:57;2.63;;;2.43;;
7179;SDS011;3631;42.152;24.756;2023-11-19T03:42:25;2.20;;;2.10;;
7179;SDS011;3631;42.152;24.756;2023-11-19T03:44:52;2.70;;;1.80;;
7179;SDS011;3631;42.152;24.756;2023-11-19T03:47:19;2.00;;;1.90;;
7179;SDS011;3631;42.152;24.756;2023-11-19T03:49:47;2.60;;;2.40;;
7179;SDS011;3631;42.152;24.756;2023-11-19T03:52:15;2.23;;;2.13;;
7179;SDS011;3631;42.152;24.756;2023-11-19T03:54:43;3.00;;;2.80;;
7179;SDS011;3631;42.152;24.756;2023-11-19T03:57:11;2.47;;;2.30;;
7179;SDS011;3631;42.152;24.756;2023-11-19T03:59:38;3.53;;;2.47;;
7179;SDS011;3631;42.152;24.756;2023-11-19T04:02:05;2.53;;;2.43;;
7179;SDS011;3631;42.152;24.756;2023-11-19T04:04:32;2.50;;;2.33;;
7179;SDS011;3631;42.152;24.756;2023-11-19T04:07:00;2.43;;;2.23;;
7179;SDS011;3631;42.152;24.756;2023-11-19T04:09:28;2.70;;;2.50;;
7179;SDS011;3631;42.152;24.756;2023-11-19T04:11:56;2.40;;;2.20;;
7179;SDS011;3631;42.152;24.756;2023-11-19T04:14:23;2.50;;;2.30;;
7179;SDS011;3631;42.152;24.756;2023-11-19T04:16:51;2.67;;;2.47;;
7179;SDS011;3631;42.152;24.756;2023-11-19T04:19:17;2.30;;;2.20;;
7179;SDS011;3631;42.152;24.756;2023-11-19T04:21:45;2.40;;;2.20;;
7179;SDS011;3631;42.152;24.756;2023-11-19T04:24:12;2.30;;;2.20;;
7179;SDS011;3631;42.152;24.756;2023-11-19T04:26:42;2.63;;;2.33;;
7179;SDS011;3631;42.152;24.756;2023-11-19T04:29:12;2.57;;;2.33;;
7179;SDS011;3631;42.152;24.756;2023-11-19T04:31:42;2.27;;;2.07;;
7179;SDS011;3631;42.152;24.756;2023-11-19T04:34:09;2.20;;;2.00;;
7179;SDS011;3631;42.152;24.756;2023-11-19T04:36:37;2.03;;;1.93;;
7179;SDS011;3631;42.152;24.756;2023-11-19T04:39:04;2.20;;;2.10;;
7179;SDS011;3631;42.152;24.756;2023-11-19T04:41:35;2.23;;;2.13;;
7179;SDS011;3631;42.152;24.756;2023-11-19T04:44:02;2.57;;;2.37;;
7179;SDS011;3631;42.152;24.756;2023-11-19T04:46:30;1.93;;;1.83;;
7179;SDS011;3631;42.152;24.756;2023-11-19T04:48:57;2.20;;;2.10;;
7179;SDS011;3631;42.152;24.756;2023-11-19T04:51:24;2.33;;;2.17;;
7179;SDS011;3631;42.152;24.756;2023-11-19T04:53:51;2.60;;;2.40;;
7179;SDS011;3631;42.152;24.756;2023-11-19T04:56:18;2.07;;;1.97;;
7179;SDS011;3631;42.152;24.756;2023-11-19T04:58:47;2.30;;;2.20;;
7179;SDS011;3631;42.152;24.756;2023-11-19T05:01:14;2.03;;;1.93;;
7179;SDS011;3631;42.152;24.756;2023-11-19T05:03:44;2.30;;;2.20;;
7179;SDS011;3631;42.152;24.756;2023-11-19T05:06:11;2.63;;;2.33;;
7179;SDS011;3631;42.152;24.756;2023-11-19T05:08:38;2.80;;;2.60;;
7179;SDS011;3631;42.152;24.756;2023-11-19T05:11:05;3.13;;;2.93;;
7179;SDS011;3631;42.152;24.756;2023-11-19T05:13:32;3.10;;;2.90;;
7179;SDS011;3631;42.152;24.756;2023-11-19T05:15:59;2.73;;;2.53;;
7179;SDS011;3631;42.152;24.756;2023-11-19T05:18:26;2.87;;;2.67;;
7179;SDS011;3631;42.152;24.756;2023-11-19T05:20:54;2.43;;;2.23;;
7179;SDS011;3631;42.152;24.756;2023-11-19T05:23:21;2.47;;;2.10;;
7179;SDS011;3631;42.152;24.756;2023-11-19T05:25:48;2.70;;;2.50;;
7179;SDS011;3631;42.152;24.756;2023-11-19T05:28:15;2.60;;;2.50;;
7179;SDS011;3631;42.152;24.756;2023-11-19T05:30:42;2.43;;;2.23;;
7179;SDS011;3631;42.152;24.756;2023-11-19T05:33:09;2.00;;;1.90;;
7179;SDS011;3631;42.152;24.756;2023-11-19T05:35:36;2.53;;;2.33;;
7179;SDS011;3631;42.152;24.756;2023-11-19T05:38:04;2.63;;;2.43;;
7179;SDS011;3631;42.152;24.756;2023-11-19T05:40:31;2.20;;;2.07;;
7179;SDS011;3631;42.152;24.756;2023-11-19T05:42:58;2.93;;;2.53;;
7179;SDS011;3631;42.152;24.756;2023-11-19T05:45:25;2.80;;;2.60;;
7179;SDS011;3631;42.152;24.756;2023-11-19T05:47:52;2.73;;;2.53;;
7179;SDS011;3631;42.152;24.756;2023-11-19T05:50:19;2.60;;;2.40;;
7179;SDS011;3631;42.152;24.756;2023-11-19T05:52:46;2.50;;;2.30;;
7179;SDS011;3631;42.152;24.756;2023-11-19T05:55:14;3.10;;;2.80;;
7179;SDS011;3631;42.152;24.756;2023-11-19T05:57:41;3.17;;;2.87;;
7179;SDS011;3631;42.152;24.756;2023-11-19T06:00:08;2.50;;;2.30;;
7179;SDS011;3631;42.152;24.756;2023-11-19T06:02:38;2.50;;;2.30;;
7179;SDS011;3631;42.152;24.756;2023-11-19T06:05:05;2.87;;;2.67;;
7179;SDS011;3631;42.152;24.756;2023-11-19T06:07:33;4.10;;;2.30;;
7179;SDS011;3631;42.152;24.756;2023-11-19T06:10:00;2.27;;;2.07;;
7179;SDS011;3631;42.152;24.756;2023-11-19T06:12:29;2.70;;;2.50;;
7179;SDS011;3631;42.152;24.756;2023-11-19T06:14:57;2.67;;;2.47;;
7179;SDS011;3631;42.152;24.756;2023-11-19T06:17:24;3.00;;;2.80;;
7179;SDS011;3631;42.152;24.756;2023-11-19T06:19:50;2.77;;;2.57;;
7179;SDS011;3631;42.152;24.756;2023-11-19T06:22:17;9.17;;;2.80;;
7179;SDS011;3631;42.152;24.756;2023-11-19T06:24:44;2.17;;;2.07;;
7179;SDS011;3631;42.152;24.756;2023-11-19T06:27:11;2.27;;;2.17;;
7179;SDS011;3631;42.152;24.756;2023-11-19T06:29:39;2.57;;;2.40;;
7179;SDS011;3631;42.152;24.756;2023-11-19T06:32:07;2.50;;;2.30;;
7179;SDS011;3631;42.152;24.756;2023-11-19T06:34:34;2.60;;;2.40;;
7179;SDS011;3631;42.152;24.756;2023-11-19T06:37:01;2.13;;;2.03;;
7179;SDS011;3631;42.152;24.756;2023-11-19T06:39:29;2.83;;;2.30;;
7179;SDS011;3631;42.152;24.756;2023-11-19T06:41:56;2.43;;;2.30;;
7179;SDS011;3631;42.152;24.756;2023-11-19T06:44:23;2.10;;;2.00;;
7179;SDS011;3631;42.152;24.756;2023-11-19T06:46:52;2.40;;;2.20;;
7179;SDS011;3631;42.152;24.756;2023-11-19T06:49:19;2.63;;;2.43;;
7179;SDS011;3631;42.152;24.756;2023-11-19T06:51:46;2.60;;;2.40;;
7179;SDS011;3631;42.152;24.756;2023-11-19T06:54:13;2.20;;;2.10;;
7179;SDS011;3631;42.152;24.756;2023-11-19T06:56:38;2.53;;;2.33;;
7179;SDS011;3631;42.152;24.756;2023-11-19T06:59:06;2.97;;;2.67;;
7179;SDS011;3631;42.152;24.756;2023-11-19T07:01:34;3.00;;;2.80;;
7179;SDS011;3631;42.152;24.756;2023-11-19T07:04:03;3.40;;;3.10;;
7179;SDS011;3631;42.152;24.756;2023-11-19T07:06:34;2.80;;;2.60;;
7179;SDS011;3631;42.152;24.756;2023-11-19T07:09:02;2.87;;;2.50;;
7179;SDS011;3631;42.152;24.756;2023-11-19T07:11:34;2.90;;;2.70;;
7179;SDS011;3631;42.152;24.756;2023-11-19T07:14:04;4.27;;;2.80;;
7179;SDS011;3631;42.152;24.756;2023-11-19T07:16:31;2.47;;;2.27;;
7179;SDS011;3631;42.152;24.756;2023-11-19T07:18:59;2.73;;;2.53;;
7179;SDS011;3631;42.152;24.756;2023-11-19T07:21:28;2.63;;;2.10;;
7179;SDS011;3631;42.152;24.756;2023-11-19T07:23:55;2.13;;;1.93;;
7179;SDS011;3631;42.152;24.756;2023-11-19T07:26:25;1.90;;;1.80;;
7179;SDS011;3631;42.152;24.756;2023-11-19T07:28:53;4.93;;;2.30;;
7179;SDS011;3631;42.152;24.756;2023-11-19T07:31:21;2.60;;;2.40;;
7179;SDS011;3631;42.152;24.756;2023-11-19T07:33:49;2.90;;;2.30;;
7179;SDS011;3631;42.152;24.756;2023-11-19T07:36:16;2.30;;;2.20;;
7179;SDS011;3631;42.152;24.756;2023-11-19T07:38:45;3.67;;;2.30;;
7179;SDS011;3631;42.152;24.756;2023-11-19T07:41:12;2.07;;;1.97;;
7179;SDS011;3631;42.152;24.756;2023-11-19T07:43:39;2.63;;;2.43;;
7179;SDS011;3631;42.152;24.756;2023-11-19T07:46:10;3.17;;;2.10;;
7179;SDS011;3631;42.152;24.756;2023-11-19T07:48:38;2.87;;;2.67;;
7179;SDS011;3631;42.152;24.756;2023-11-19T07:51:05;2.77;;;2.57;;
7179;SDS011;3631;42.152;24.756;2023-11-19T07:53:32;2.60;;;2.40;;
7179;SDS011;3631;42.152;24.756;2023-11-19T07:56:00;4.33;;;2.47;;
7179;SDS011;3631;42.152;24.756;2023-11-19T07:58:27;2.97;;;2.30;;
7179;SDS011;3631;42.152;24.756;2023-11-19T08:00:54;1.67;;;1.57;;
7179;SDS011;3631;42.152;24.756;2023-11-19T08:03:21;2.30;;;2.10;;
7179;SDS011;3631;42.152;24.756;2023-11-19T08:05:48;2.47;;;2.27;;
7179;SDS011;3631;42.152;24.756;2023-11-19T08:08:16;2.30;;;2.10;;
7179;SDS011;3631;42.152;24.756;2023-11-19T08:10:43;2.57;;;2.37;;
7179;SDS011;3631;42.152;24.756;2023-11-19T08:13:12;2.30;;;2.10;;
7179;SDS011;3631;42.152;24.756;2023-11-19T08:15:39;1.87;;;1.77;;
7179;SDS011;3631;42.152;24.756;2023-11-19T08:18:06;2.30;;;2.10;;
7179;SDS011;3631;42.152;24.756;2023-11-19T08:20:34;2.07;;;1.97;;
7179;SDS011;3631;42.152;24.756;2023-11-19T08:23:03;2.20;;;2.00;;
7179;SDS011;3631;42.152;24.756;2023-11-19T08:25:30;3.53;;;2.20;;
7179;SDS011;3631;42.152;24.756;2023-11-19T08:27:58;2.53;;;2.33;;
7179;SDS011;3631;42.152;24.756;2023-11-19T08:30:27;1.97;;;1.87;;
7179;SDS011;3631;42.152;24.756;2023-11-19T08:32:54;2.73;;;2.00;;
7179;SDS011;3631;42.152;24.756;2023-11-19T08:35:21;5.60;;;2.43;;
7179;SDS011;3631;42.152;24.756;2023-11-19T08:37:49;3.27;;;2.90;;
7179;SDS011;3631;42.152;24.756;2023-11-19T08:40:17;3.60;;;3.30;;
7179;SDS011;3631;42.152;24.756;2023-11-19T08:42:45;2.27;;;2.07;;
7179;SDS011;3631;42.152;24.756;2023-11-19T08:45:12;2.60;;;2.50;;
7179;SDS011;3631;42.152;24.756;2023-11-19T08:47:41;2.33;;;2.23;;
7179;SDS011;3631;42.152;24.756;2023-11-19T08:50:08;2.83;;;2.63;;
7179;SDS011;3631;42.152;24.756;2023-11-19T08:52:35;3.37;;;2.67;;
7179;SDS011;3631;42.152;24.756;2023-11-19T08:55:02;3.67;;;2.50;;
7179;SDS011;3631;42.152;24.756;2023-11-19T08:57:31;2.77;;;2.57;;
7179;SDS011;3631;42.152;24.756;2023-11-19T08:59:58;2.87;;;2.67;;
7179;SDS011;3631;42.152;24.756;2023-11-19T09:02:25;3.30;;;2.77;;
7179;SDS011;3631;42.152;24.756;2023-11-19T09:04:54;2.50;;;2.30;;
7179;SDS011;3631;42.152;24.756;2023-11-19T09:07:21;2.57;;;2.17;;
7179;SDS011;3631;42.152;24.756;2023-11-19T09:09:48;3.87;;;2.60;;
7179;SDS011;3631;42.152;24.756;2023-11-19T09:12:15;4.27;;;2.40;;
7179;SDS011;3631;42.152;24.756;2023-11-19T09:14:42;2.40;;;2.20;;
7179;SDS011;3631;42.152;24.756;2023-11-19T09:17:09;2.53;;;2.33;;
7179;SDS011;3631;42.152;24.756;2023-11-19T09:19:36;3.40;;;2.47;;
7179;SDS011;3631;42.152;24.756;2023-11-19T09:22:04;2.50;;;2.30;;
7179;SDS011;3631;42.152;24.756;2023-11-19T09:24:31;2.70;;;2.50;;
7179;SDS011;3631;42.152;24.756;2023-11-19T09:26:58;3.00;;;2.40;;
7179;SDS011;3631;42.152;24.756;2023-11-19T09:29:25;2.53;;;2.33;;
7179;SDS011;3631;42.152;24.756;2023-11-19T09:31:52;3.60;;;2.47;;
7179;SDS011;3631;42.152;24.756;2023-11-19T09:34:21;4.13;;;1.93;;
7179;SDS011;3631;42.152;24.756;2023-11-19T09:36:48;2.67;;;2.47;;
7179;SDS011;3631;42.152;24.756;2023-11-19T09:39:16;2.33;;;2.23;;
7179;SDS011;3631;42.152;24.756;2023-11-19T09:41:43;2.43;;;2.23;;
7179;SDS011;3631;42.152;24.756;2023-11-19T09:44:11;2.80;;;2.30;;
7179;SDS011;3631;42.152;24.756;2023-11-19T09:46:39;2.53;;;2.33;;
7179;SDS011;3631;42.152;24.756;2023-11-19T09:49:08;2.10;;;2.00;;
7179;SDS011;3631;42.152;24.756;2023-11-19T09:51:37;2.60;;;2.40;;
7179;SDS011;3631;42.152;24.756;2023-11-19T09:54:05;2.60;;;2.50;;
7179;SDS011;3631;42.152;24.756;2023-11-19T09:56:33;2.43;;;2.23;;
7179;SDS011;3631;42.152;24.756;2023-11-19T09:59:04;2.60;;;2.40;;
7179;SDS011;3631;42.152;24.756;2023-11-19T10:01:31;4.23;;;2.60;;
7179;SDS011;3631;42.152;24.756;2023-11-19T10:04:01;2.67;;;2.47;;
7179;SDS011;3631;42.152;24.756;2023-11-19T10:06:28;3.73;;;2.50;;
7179;SDS011;3631;42.152;24.756;2023-11-19T10:08:55;2.37;;;2.27;;
7179;SDS011;3631;42.152;24.756;2023-11-19T10:11:22;3.67;;;2.37;;
7179;SDS011;3631;42.152;24.756;2023-11-19T10:13:51;2.07;;;1.97;;
7179;SDS011;3631;42.152;24.756;2023-11-19T10:16:18;2.60;;;2.40;;
7179;SDS011;3631;42.152;24.756;2023-11-19T10:18:45;2.70;;;2.50;;
7179;SDS011;3631;42.152;24.756;2023-11-19T10:21:15;2.87;;;2.67;;
7179;SDS011;3631;42.152;24.756;2023-11-19T10:23:47;2.43;;;2.30;;
7179;SDS011;3631;42.152;24.756;2023-11-19T10:26:16;2.77;;;2.57;;
7179;SDS011;3631;42.152;24.756;2023-11-19T10:28:43;2.33;;;2.20;;
7179;SDS011;3631;42.152;24.756;2023-11-19T10:31:14;2.73;;;2.53;;
7179;SDS011;3631;42.152;24.756;2023-11-19T10:33:42;3.10;;;2.90;;
7179;SDS011;3631;42.152;24.756;2023-11-19T10:36:10;2.47;;;2.37;;
7179;SDS011;3631;42.152;24.756;2023-11-19T10:38:38;2.40;;;2.30;;
7179;SDS011;3631;42.152;24.756;2023-11-19T10:41:05;2.60;;;2.40;;
7179;SDS011;3631;42.152;24.756;2023-11-19T10:43:42;2.70;;;2.50;;
7179;SDS011;3631;42.152;24.756;2023-11-19T10:46:11;3.60;;;2.70;;
7179;SDS011;3631;42.152;24.756;2023-11-19T10:48:40;2.67;;;2.53;;
7179;SDS011;3631;42.152;24.756;2023-11-19T10:51:07;2.20;;;2.10;;
7179;SDS011;3631;42.152;24.756;2023-11-19T10:53:36;4.30;;;2.60;;
7179;SDS011;3631;42.152;24.756;2023-11-19T10:56:06;3.00;;;2.80;;
7179;SDS011;3631;42.152;24.756;2023-11-19T10:58:37;9.07;;;3.00;;
7179;SDS011;3631;42.152;24.756;2023-11-19T11:01:11;3.90;;;2.73;;
7179;SDS011;3631;42.152;24.756;2023-11-19T11:03:45;2.90;;;2.70;;
7179;SDS011;3631;42.152;24.756;2023-11-19T11:06:12;2.87;;;2.67;;
7179;SDS011;3631;42.152;24.756;2023-11-19T11:08:40;2.70;;;2.50;;
7179;SDS011;3631;42.152;24.756;2023-11-19T11:11:07;2.73;;;2.53;;
7179;SDS011;3631;42.152;24.756;2023-11-19T11:13:35;2.60;;;2.40;;
7179;SDS011;3631;42.152;24.756;2023-11-19T11:16:08;3.63;;;2.50;;
7179;SDS011;3631;42.152;24.756;2023-11-19T11:18:36;3.63;;;2.57;;
7179;SDS011;3631;42.152;24.756;2023-11-19T11:21:07;3.27;;;2.50;;
7179;SDS011;3631;42.152;24.756;2023-11-19T11:23:43;9.80;;;3.17;;
7179;SDS011;3631;42.152;24.756;2023-11-19T11:26:28;2.63;;;2.43;;
7179;SDS011;3631;42.152;24.756;2023-11-19T11:29:24;2.63;;;2.50;;
7179;SDS011;3631;42.152;24.756;2023-11-19T11:32:04;3.00;;;2.40;;
7179;SDS011;3631;42.152;24.756;2023-11-19T11:34:52;2.80;;;2.60;;
7179;SDS011;3631;42.152;24.756;2023-11-19T11:37:32;3.03;;;2.77;;
7179;SDS011;3631;42.152;24.756;2023-11-19T11:40:04;2.50;;;2.30;;
7179;SDS011;3631;42.152;24.756;2023-11-19T11:42:35;2.83;;;2.63;;
7179;SDS011;3631;42.152;24.756;2023-11-19T11:45:04;4.00;;;2.33;;
7179;SDS011;3631;42.152;24.756;2023-11-19T11:50:48;2.90;;;2.70;;
7179;SDS011;3631;42.152;24.756;2023-11-19T11:53:18;3.27;;;2.70;;
7179;SDS011;3631;42.152;24.756;2023-11-19T11:55:55;2.63;;;2.40;;
7179;SDS011;3631;42.152;24.756;2023-11-19T11:58:31;2.57;;;2.43;;
7179;SDS011;3631;42.152;24.756;2023-11-19T12:01:03;3.00;;;2.80;;
7179;SDS011;3631;42.152;24.756;2023-11-19T12:03:32;3.43;;;3.23;;
7179;SDS011;3631;42.152;24.756;2023-11-19T12:05:59;2.73;;;2.53;;
7179;SDS011;3631;42.152;24.756;2023-11-19T12:08:28;2.57;;;2.37;;
7179;SDS011;3631;42.152;24.756;2023-11-19T12:10:57;4.07;;;2.60;;
7179;SDS011;3631;42.152;24.756;2023-11-19T12:13:27;2.53;;;2.40;;
7179;SDS011;3631;42.152;24.756;2023-11-19T12:16:12;3.43;;;2.67;;
7179;SDS011;3631;42.152;24.756;2023-11-19T12:18:39;3.13;;;2.60;;
7179;SDS011;3631;42.152;24.756;2023-11-19T12:21:10;3.23;;;3.00;;
7179;SDS011;3631;42.152;24.756;2023-11-19T12:23:45;3.13;;;2.93;;
7179;SDS011;3631;42.152;24.756;2023-11-19T12:26:21;3.07;;;2.87;;
7179;SDS011;3631;42.152;24.756;2023-11-19T12:28:58;2.53;;;2.43;;
7179;SDS011;3631;42.152;24.756;2023-11-19T12:31:25;2.90;;;2.70;;
7179;SDS011;3631;42.152;24.756;2023-11-19T12:33:52;3.60;;;3.30;;
7179;SDS011;3631;42.152;24.756;2023-11-19T12:36:20;3.13;;;2.93;;
7179;SDS011;3631;42.152;24.756;2023-11-19T12:38:48;2.90;;;2.70;;
7179;SDS011;3631;42.152;24.756;2023-11-19T12:41:16;2.93;;;2.73;;
7179;SDS011;3631;42.152;24.756;2023-11-19T12:43:45;3.10;;;2.90;;
7179;SDS011;3631;42.152;24.756;2023-11-19T12:46:19;2.73;;;2.53;;
7179;SDS011;3631;42.152;24.756;2023-11-19T12:48:47;3.30;;;3.10;;
7179;SDS011;3631;42.152;24.756;2023-11-19T12:51:14;4.07;;;3.77;;
7179;SDS011;3631;42.152;24.756;2023-11-19T12:53:49;3.30;;;3.03;;
7179;SDS011;3631;42.152;24.756;2023-11-19T12:56:19;3.30;;;3.00;;
7179;SDS011;3631;42.152;24.756;2023-11-19T12:58:46;4.87;;;2.93;;
7179;SDS011;3631;42.152;24.756;2023-11-19T13:01:15;3.50;;;3.30;;
7179;SDS011;3631;42.152;24.756;2023-11-19T13:03:44;3.80;;;3.50;;
7179;SDS011;3631;42.152;24.756;2023-11-19T13:06:12;3.13;;;2.93;;
7179;SDS011;3631;42.152;24.756;2023-11-19T13:08:41;3.90;;;3.23;;
7179;SDS011;3631;42.152;24.756;2023-11-19T13:11:11;3.60;;;3.30;;
7179;SDS011;3631;42.152;24.756;2023-11-19T13:13:54;3.37;;;3.13;;
7179;SDS011;3631;42.152;24.756;2023-11-19T13:16:21;3.73;;;3.40;;
7179;SDS011;3631;42.152;24.756;2023-11-19T13:18:48;3.80;;;3.50;;
7179;SDS011;3631;42.152;24.756;2023-11-19T13:21:15;4.10;;;3.13;;
7179;SDS011;3631;42.152;24.756;2023-11-19T13:23:42;3.80;;;3.50;;
7179;SDS011;3631;42.152;24.756;2023-11-19T13:26:11;5.47;;;3.67;;
7179;SDS011;3631;42.152;24.756;2023-11-19T13:28:38;3.27;;;3.07;;
7179;SDS011;3631;42.152;24.756;2023-11-19T13:31:05;5.00;;;3.37;;
7179;SDS011;3631;42.152;24.756;2023-11-19T13:33:32;3.00;;;2.80;;
7179;SDS011;3631;42.152;24.756;2023-11-19T13:35:59;3.37;;;3.17;;
7179;SDS011;3631;42.152;24.756;2023-11-19T13:38:31;3.80;;;3.50;;
7179;SDS011;3631;42.152;24.756;2023-11-19T13:40:58;2.93;;;2.73;;
7179;SDS011;3631;42.152;24.756;2023-11-19T13:43:27;3.33;;;3.13;;
7179;SDS011;3631;42.152;24.756;2023-11-19T13:45:54;3.50;;;3.20;;
7179;SDS011;3631;42.152;24.756;2023-11-19T13:48:21;3.40;;;3.10;;
7179;SDS011;3631;42.152;24.756;2023-11-19T13:50:48;3.53;;;3.23;;
7179;SDS011;3631;42.152;24.756;2023-11-19T13:53:15;3.40;;;3.20;;
7179;SDS011;3631;42.152;24.756;2023-11-19T13:55:43;3.40;;;3.10;;
7179;SDS011;3631;42.152;24.756;2023-11-19T13:58:09;4.33;;;2.70;;
7179;SDS011;3631;42.152;24.756;2023-11-19T14:00:38;3.40;;;3.03;;
7179;SDS011;3631;42.152;24.756;2023-11-19T14:03:07;3.33;;;2.97;;
7179;SDS011;3631;42.152;24.756;2023-11-19T14:05:34;3.70;;;3.40;;
7179;SDS011;3631;42.152;24.756;2023-11-19T14:08:01;5.80;;;3.20;;
7179;SDS011;3631;42.152;24.756;2023-11-19T14:10:28;3.33;;;3.13;;
7179;SDS011;3631;42.152;24.756;2023-11-19T14:12:55;3.23;;;3.03;;
7179;SDS011;3631;42.152;24.756;2023-11-19T14:15:23;3.40;;;3.20;;
7179;SDS011;3631;42.152;24.756;2023-11-19T14:17:52;3.30;;;3.10;;
7179;SDS011;3631;42.152;24.756;2023-11-19T14:20:22;3.67;;;3.37;;
7179;SDS011;3631;42.152;24.756;2023-11-19T14:22:50;3.17;;;2.90;;
7179;SDS011;3631;42.152;24.756;2023-11-19T14:25:18;5.17;;;3.17;;
7179;SDS011;3631;42.152;24.756;2023-11-19T14:27:47;5.73;;;3.43;;
7179;SDS011;3631;42.152;24.756;2023-11-19T14:30:14;3.53;;;3.23;;
7179;SDS011;3631;42.152;24.756;2023-11-19T14:32:42;3.77;;;3.47;;
7179;SDS011;3631;42.152;24.756;2023-11-19T14:35:12;3.70;;;3.40;;
7179;SDS011;3631;42.152;24.756;2023-11-19T14:37:39;4.00;;;3.47;;
7179;SDS011;3631;42.152;24.756;2023-11-19T14:40:06;3.87;;;3.10;;
7179;SDS011;3631;42.152;24.756;2023-11-19T14:42:36;3.50;;;3.20;;
7179;SDS011;3631;42.152;24.756;2023-11-19T14:45:04;3.27;;;3.07;;
7179;SDS011;3631;42.152;24.756;2023-11-19T14:47:33;3.10;;;2.90;;
7179;SDS011;3631;42.152;24.756;2023-11-19T14:50:00;3.30;;;3.07;;
7179;SDS011;3631;42.152;24.756;2023-11-19T14:52:29;5.60;;;3.00;;
7179;SDS011;3631;42.152;24.756;2023-11-19T14:54:56;3.40;;;3.10;;
7179;SDS011;3631;42.152;24.756;2023-11-19T14:57:23;3.20;;;3.00;;
7179;SDS011;3631;42.152;24.756;2023-11-19T14:59:50;3.33;;;3.13;;
7179;SDS011;3631;42.152;24.756;2023-11-19T15:02:18;4.43;;;4.03;;
7179;SDS011;3631;42.152;24.756;2023-11-19T15:04:44;4.30;;;3.20;;
7179;SDS011;3631;42.152;24.756;2023-11-19T15:07:11;3.07;;;2.87;;
7179;SDS011;3631;42.152;24.756;2023-11-19T15:09:40;3.87;;;3.47;;